createdAt,value
2023-03-18T00:01:30.227Z,100477.22
2023-03-18T00:03:58.531Z,100471.16
2023-03-18T00:06:28.748Z,100470.91
2023-03-18T00:08:57.349Z,100471.94
2023-03-18T00:11:27.178Z,100470.00
2023-03-18T00:13:55.569Z,100467.78
2023-03-18T00:16:23.995Z,100472.47
2023-03-18T00:18:53.081Z,100480.97
2023-03-18T00:21:21.436Z,100503.50
2023-03-18T00:23:56.392Z,100494.00
2023-03-18T00:26:25.064Z,100501.84
2023-03-18T00:28:53.853Z,100485.28
2023-03-18T00:31:22.625Z,100488.56
2023-03-18T00:33:50.959Z,100484.25
2023-03-18T00:36:25.595Z,100495.41
2023-03-18T00:38:58.036Z,100482.63
2023-03-18T00:41:28.203Z,100478.78
2023-03-18T00:43:57.494Z,100483.84
2023-03-18T00:46:29.275Z,100490.88
2023-03-18T00:49:01.398Z,100484.63
2023-03-18T00:51:33.795Z,100483.66
2023-03-18T00:54:06.681Z,100467.34
2023-03-18T00:56:37.633Z,100462.97
2023-03-18T00:59:06.499Z,100464.25
2023-03-18T01:01:36.674Z,100473.22
2023-03-18T01:04:06.253Z,100472.50
2023-03-18T01:06:37.485Z,100480.16
2023-03-18T01:09:11.266Z,100473.47
2023-03-18T01:11:39.708Z,100476.00
2023-03-18T01:14:08.056Z,100497.91
2023-03-18T01:16:36.416Z,100492.28
2023-03-18T01:19:05.138Z,100495.16
2023-03-18T01:21:33.677Z,100496.28
2023-03-18T01:24:02.245Z,100494.69
2023-03-18T01:26:31.980Z,100495.91
2023-03-18T01:29:00.537Z,100494.22
2023-03-18T01:31:29.891Z,100498.31
2023-03-18T01:33:58.253Z,100503.19
2023-03-18T01:36:26.644Z,100516.34
2023-03-18T01:38:54.974Z,100505.34
2023-03-18T01:41:23.662Z,100510.47
2023-03-18T01:43:54.810Z,100505.06
2023-03-18T01:46:39.705Z,100504.09
2023-03-18T01:49:21.696Z,100511.59
2023-03-18T01:51:55.478Z,100514.59
2023-03-18T01:54:25.510Z,100501.00
2023-03-18T01:56:54.198Z,100491.13
2023-03-18T01:59:28.805Z,100487.03
2023-03-18T02:02:06.622Z,100483.25
2023-03-18T02:04:40.127Z,100489.25
2023-03-18T02:07:08.926Z,100486.16
2023-03-18T02:09:37.677Z,100480.38
2023-03-18T02:12:08.791Z,100478.22
2023-03-18T02:14:38.614Z,100483.25
2023-03-18T02:17:12.567Z,100483.44
2023-03-18T02:19:59.045Z,100481.25
2023-03-18T02:22:33.249Z,100486.56
2023-03-18T02:25:22.791Z,100492.03
2023-03-18T02:27:57.131Z,100490.00
2023-03-18T02:30:31.995Z,100481.75
2023-03-18T02:33:01.737Z,100480.84
2023-03-18T02:35:31.485Z,100483.72
2023-03-18T02:37:59.878Z,100487.00
2023-03-18T02:40:33.305Z,100473.91
2023-03-18T02:43:21.249Z,100484.44
2023-03-18T02:46:08.056Z,100482.16
2023-03-18T02:48:39.828Z,100480.84
2023-03-18T02:51:09.247Z,100481.94
2023-03-18T02:53:38.897Z,100485.28
2023-03-18T02:56:08.858Z,100488.66
2023-03-18T02:58:39.330Z,100493.13
2023-03-18T03:01:08.781Z,100495.09
2023-03-18T03:03:38.235Z,100501.72
2023-03-18T03:06:07.629Z,100495.59
2023-03-18T03:08:36.749Z,100500.34
2023-03-18T03:11:06.037Z,100500.63
2023-03-18T03:13:34.447Z,100500.03
2023-03-18T03:16:04.146Z,100492.56
2023-03-18T03:18:32.523Z,100499.03
2023-03-18T03:21:00.835Z,100492.34
2023-03-18T03:23:29.492Z,100502.56
2023-03-18T03:25:57.946Z,100496.78
2023-03-18T03:28:27.120Z,100503.75
2023-03-18T03:30:57.085Z,100499.53
2023-03-18T03:33:27.691Z,100504.88
2023-03-18T03:35:58.142Z,100513.19
2023-03-18T03:38:27.528Z,100512.50
2023-03-18T03:40:55.853Z,100511.97
2023-03-18T03:43:24.153Z,100515.06
2023-03-18T03:45:52.433Z,100512.44
2023-03-18T03:48:20.767Z,100519.19
2023-03-18T03:50:52.043Z,100522.31
2023-03-18T03:53:21.372Z,100523.16
2023-03-18T03:55:49.662Z,100525.53
2023-03-18T03:58:17.980Z,100539.09
2023-03-18T04:00:46.490Z,100542.72
2023-03-18T04:03:14.842Z,100538.91
2023-03-18T04:05:43.298Z,100539.63
2023-03-18T04:08:12.968Z,100528.53
2023-03-18T04:10:41.287Z,100539.66
2023-03-18T04:13:10.349Z,100535.13
2023-03-18T04:15:39.024Z,100546.72
2023-03-18T04:18:07.819Z,100550.97
2023-03-18T04:20:36.693Z,100551.91
2023-03-18T04:23:07.451Z,100549.81
2023-03-18T04:25:37.320Z,100556.38
2023-03-18T04:28:06.128Z,100552.19
2023-03-18T04:30:34.568Z,100550.03
2023-03-18T04:33:03.612Z,100548.56
2023-03-18T04:35:32.142Z,100552.22
2023-03-18T04:38:00.697Z,100558.19
2023-03-18T04:40:29.242Z,100559.03
2023-03-18T04:42:58.986Z,100566.59
2023-03-18T04:45:27.295Z,100567.84
2023-03-18T04:47:55.635Z,100557.31
2023-03-18T04:50:24.966Z,100563.13
2023-03-18T04:52:53.361Z,100554.53
2023-03-18T04:55:22.404Z,100558.81
2023-03-18T04:57:50.831Z,100573.47
2023-03-18T05:00:23.745Z,100577.03
2023-03-18T05:02:52.246Z,100580.22
2023-03-18T05:05:21.202Z,100579.19
2023-03-18T05:07:49.543Z,100576.59
2023-03-18T05:10:18.955Z,100574.31
2023-03-18T05:12:47.288Z,100577.56
2023-03-18T05:15:15.610Z,100581.06
2023-03-18T05:17:45.407Z,100576.88
2023-03-18T05:20:15.126Z,100584.97
2023-03-18T05:22:43.895Z,100580.81
2023-03-18T05:25:12.764Z,100587.19
2023-03-18T05:27:41.857Z,100585.63
2023-03-18T05:30:12.485Z,100589.53
2023-03-18T05:32:41.537Z,100584.94
2023-03-18T05:35:11.965Z,100586.34
2023-03-18T05:37:40.318Z,100587.63
2023-03-18T05:40:11.818Z,100591.94
2023-03-18T05:42:53.538Z,100595.75
2023-03-18T05:45:23.995Z,100590.13
2023-03-18T05:47:53.022Z,100596.38
2023-03-18T05:50:31.763Z,100596.47
2023-03-18T05:53:00.893Z,100593.63
2023-03-18T05:55:30.559Z,100602.22
2023-03-18T05:58:00.471Z,100605.78
2023-03-18T06:00:30.074Z,100616.34
2023-03-18T06:02:59.457Z,100610.69
2023-03-18T06:05:30.092Z,100607.97
2023-03-18T06:07:59.529Z,100615.53
2023-03-18T06:10:28.249Z,100619.09
2023-03-18T06:12:56.919Z,100624.28
2023-03-18T06:15:25.787Z,100632.69
2023-03-18T06:17:54.352Z,100632.28
2023-03-18T06:20:23.452Z,100634.41
2023-03-18T06:22:53.359Z,100637.81
2023-03-18T06:25:23.390Z,100637.53
2023-03-18T06:27:52.377Z,100640.94
2023-03-18T06:30:20.933Z,100638.38
2023-03-18T06:32:49.313Z,100634.84
2023-03-18T06:35:18.946Z,100647.09
2023-03-18T06:37:47.429Z,100654.19
2023-03-18T06:40:17.519Z,100654.56
2023-03-18T06:42:46.522Z,100646.03
2023-03-18T06:45:15.337Z,100652.25
2023-03-18T06:47:44.057Z,100644.97
2023-03-18T06:50:14.289Z,100648.97
2023-03-18T06:52:43.608Z,100647.03
2023-03-18T06:55:12.403Z,100644.94
2023-03-18T06:57:42.065Z,100643.66
2023-03-18T07:00:12.632Z,100651.59
2023-03-18T07:02:42.022Z,100654.19
2023-03-18T07:05:12.650Z,100656.28
2023-03-18T07:07:42.196Z,100651.63
2023-03-18T07:10:18.518Z,100656.66
2023-03-18T07:12:49.015Z,100657.78
2023-03-18T07:15:20.011Z,100659.41
2023-03-18T07:17:48.659Z,100661.34
2023-03-18T07:20:18.049Z,100662.28
2023-03-18T07:22:48.296Z,100664.47
2023-03-18T07:25:16.699Z,100659.50
2023-03-18T07:27:45.630Z,100666.69
2023-03-18T07:30:17.842Z,100670.00
2023-03-18T07:32:47.030Z,100670.78
2023-03-18T07:35:16.127Z,100677.97
2023-03-18T07:37:45.040Z,100667.31
2023-03-18T07:40:14.745Z,100675.28
2023-03-18T07:42:43.420Z,100679.75
2023-03-18T07:45:12.359Z,100684.50
2023-03-18T07:47:42.262Z,100685.25
2023-03-18T07:50:12.371Z,100684.81
2023-03-18T07:52:40.963Z,100693.13
2023-03-18T07:55:10.285Z,100684.66
2023-03-18T07:57:38.687Z,100693.28
2023-03-18T08:00:10.505Z,100688.44
2023-03-18T08:02:38.846Z,100693.13
2023-03-18T08:05:09.809Z,100693.56
2023-03-18T08:07:39.286Z,100697.06
2023-03-18T08:10:10.244Z,100703.00
2023-03-18T08:12:52.205Z,100709.03
2023-03-18T08:15:22.024Z,100712.97
2023-03-18T08:17:50.710Z,100716.53
2023-03-18T08:20:21.471Z,100717.09
2023-03-18T08:22:50.125Z,100714.38
2023-03-18T08:25:19.150Z,100708.69
2023-03-18T08:27:47.485Z,100721.84
2023-03-18T08:30:16.622Z,100724.41
2023-03-18T08:32:45.537Z,100723.28
2023-03-18T08:35:14.711Z,100733.53
2023-03-18T08:37:44.376Z,100734.63
2023-03-18T08:40:14.304Z,100730.91
2023-03-18T08:42:42.578Z,100737.09
2023-03-18T08:45:12.480Z,100728.88
2023-03-18T08:47:41.480Z,100731.28
2023-03-18T08:50:12.064Z,100733.50
2023-03-18T08:52:41.391Z,100734.16
2023-03-18T08:55:11.839Z,100734.44
2023-03-18T08:57:40.156Z,100736.94
2023-03-18T09:00:11.550Z,100737.31
2023-03-18T09:02:40.181Z,100730.81
2023-03-18T09:05:09.563Z,100731.94
2023-03-18T09:07:37.903Z,100738.91
2023-03-18T09:10:07.518Z,100746.13
2023-03-18T09:12:37.257Z,100741.59
2023-03-18T09:15:07.490Z,100747.72
2023-03-18T09:17:53.511Z,100746.16
2023-03-18T09:20:24.393Z,100751.91
2023-03-18T09:22:54.754Z,100743.41
2023-03-18T09:25:23.220Z,100757.66
2023-03-18T09:27:53.020Z,100747.81
2023-03-18T09:30:21.758Z,100750.88
2023-03-18T09:32:50.699Z,100747.28
2023-03-18T09:35:19.236Z,100749.22
2023-03-18T09:37:47.725Z,100743.56
2023-03-18T09:40:25.848Z,100743.44
2023-03-18T09:43:08.929Z,100743.50
2023-03-18T09:45:47.070Z,100745.13
2023-03-18T09:48:55.571Z,100748.50
2023-03-18T09:51:43.286Z,100738.94
2023-03-18T09:54:20.241Z,100738.88
2023-03-18T09:56:49.651Z,100733.97
2023-03-18T09:59:25.510Z,100742.53
2023-03-18T10:01:57.691Z,100742.25
2023-03-18T10:04:31.468Z,100742.53
2023-03-18T10:07:04.514Z,100735.25
2023-03-18T10:09:41.024Z,100738.88
2023-03-18T10:12:17.920Z,100733.88
2023-03-18T10:14:53.527Z,100736.53
2023-03-18T10:17:26.803Z,100740.56
2023-03-18T10:20:00.730Z,100731.94
2023-03-18T10:22:54.404Z,100734.69
2023-03-18T10:25:30.246Z,100736.09
2023-03-18T10:28:23.445Z,100733.88
2023-03-18T10:31:06.370Z,100735.78
2023-03-18T10:33:47.499Z,100733.09
2023-03-18T10:36:22.403Z,100738.59
2023-03-18T10:38:53.723Z,100741.63
2023-03-18T10:41:28.755Z,100741.19
2023-03-18T10:43:58.487Z,100738.19
2023-03-18T10:46:28.520Z,100730.50
2023-03-18T10:49:02.977Z,100722.69
2023-03-18T10:51:37.642Z,100727.84
2023-03-18T10:54:13.912Z,100727.44
2023-03-18T10:56:42.983Z,100725.75
2023-03-18T10:59:16.380Z,100719.38
2023-03-18T11:01:49.886Z,100717.44
2023-03-18T11:04:21.728Z,100716.13
2023-03-18T11:06:53.217Z,100714.56
2023-03-18T11:09:32.032Z,100709.91
2023-03-18T11:12:05.837Z,100717.84
2023-03-18T11:14:37.475Z,100722.34
2023-03-18T11:17:20.347Z,100740.06
2023-03-18T11:19:50.960Z,100724.34
2023-03-18T11:22:22.568Z,100735.72
2023-03-18T11:25:06.173Z,100725.16
2023-03-18T11:27:41.544Z,100729.97
2023-03-18T11:30:33.521Z,100732.19
2023-03-18T11:33:17.673Z,100727.72
2023-03-18T11:35:51.968Z,100734.13
2023-03-18T11:38:27.329Z,100729.94
2023-03-18T11:41:06.540Z,100733.59
2023-03-18T11:43:34.932Z,100727.16
2023-03-18T11:46:06.881Z,100733.06
2023-03-18T11:48:38.956Z,100726.13
2023-03-18T11:51:39.607Z,100722.38
2023-03-18T11:54:20.410Z,100718.53
2023-03-18T11:56:53.867Z,100717.97
2023-03-18T11:59:33.411Z,100724.59
2023-03-18T12:02:35.362Z,100723.25
2023-03-18T12:05:28.438Z,100726.53
2023-03-18T12:08:14.924Z,100722.91
2023-03-18T12:10:49.118Z,100725.25
2023-03-18T12:13:37.642Z,100717.13
2023-03-18T12:16:18.762Z,100724.34
2023-03-18T12:19:07.416Z,100703.78
2023-03-18T12:22:06.814Z,100711.81
2023-03-18T12:25:26.149Z,100716.31
2023-03-18T12:28:04.353Z,100719.69
2023-03-18T12:30:57.307Z,100710.75
2023-03-18T12:33:44.687Z,100713.19
2023-03-18T12:36:24.889Z,100712.97
2023-03-18T12:39:21.341Z,100707.69
2023-03-18T12:42:01.665Z,100699.59
2023-03-18T12:44:52.379Z,100699.03
2023-03-18T12:47:26.380Z,100701.53
2023-03-18T12:50:02.022Z,100704.03
2023-03-18T12:52:39.730Z,100701.81
2023-03-18T12:55:18.182Z,100694.53
2023-03-18T12:57:51.681Z,100689.84
2023-03-18T13:00:28.965Z,100686.75
2023-03-18T13:03:07.464Z,100684.78
2023-03-18T13:05:46.705Z,100680.06
2023-03-18T13:08:50.116Z,100677.81
2023-03-18T13:14:27.322Z,100681.44
2023-03-18T13:16:58.493Z,100686.19
2023-03-18T13:19:27.515Z,100675.88
2023-03-18T13:22:08.648Z,100686.16
2023-03-18T13:25:05.980Z,100679.19
2023-03-18T13:27:54.908Z,100685.91
2023-03-18T13:30:39.298Z,100679.66
2023-03-18T13:33:56.466Z,100680.34
2023-03-18T13:37:04.129Z,100677.47
2023-03-18T13:40:33.885Z,100677.84
2023-03-18T13:43:04.270Z,100673.38
2023-03-18T13:45:39.098Z,100675.31
2023-03-18T13:48:12.140Z,100663.06
2023-03-18T13:50:43.298Z,100664.72
2023-03-18T13:53:26.387Z,100670.75
2023-03-18T13:56:04.284Z,100663.66
2023-03-18T13:58:37.367Z,100662.25
2023-03-18T14:01:33.535Z,100674.03
2023-03-18T14:04:20.633Z,100676.41
2023-03-18T14:06:56.792Z,100690.56
2023-03-18T14:09:47.323Z,100686.56
2023-03-18T14:12:24.072Z,100676.66
2023-03-18T14:15:02.355Z,100687.84
2023-03-18T14:17:49.391Z,100687.59
2023-03-18T14:20:27.807Z,100686.38
2023-03-18T14:23:17.866Z,100675.97
2023-03-18T14:25:54.565Z,100684.78
2023-03-18T14:28:27.683Z,100688.13
2023-03-18T14:31:53.859Z,100688.84
2023-03-18T14:34:29.702Z,100691.72
2023-03-18T14:37:27.971Z,100690.59
2023-03-18T14:40:02.427Z,100693.22
2023-03-18T14:42:44.422Z,100682.94
2023-03-18T14:45:23.006Z,100675.19
2023-03-18T14:47:53.274Z,100678.78
2023-03-18T14:50:35.473Z,100682.84
2023-03-18T14:53:12.048Z,100670.72
2023-03-18T14:55:41.364Z,100661.06
2023-03-18T14:58:18.003Z,100662.19
2023-03-18T15:00:49.702Z,100660.31
2023-03-18T15:03:24.361Z,100653.66
2023-03-18T15:06:00.576Z,100658.56
2023-03-18T15:08:46.924Z,100655.81
2023-03-18T15:11:17.436Z,100655.78
2023-03-18T15:13:46.518Z,100661.63
2023-03-18T15:16:20.913Z,100665.97
2023-03-18T15:18:54.944Z,100664.13
2023-03-18T15:21:30.206Z,100672.94
2023-03-18T15:24:01.988Z,100677.00
2023-03-18T15:26:35.240Z,100663.91
2023-03-18T15:29:25.347Z,100664.47
2023-03-18T15:31:54.070Z,100659.91
2023-03-18T15:34:24.534Z,100659.53
2023-03-18T15:36:56.682Z,100668.06
2023-03-18T15:39:33.920Z,100659.69
2023-03-18T15:42:03.744Z,100656.94
2023-03-18T15:44:36.161Z,100659.13
2023-03-18T15:47:16.703Z,100657.19
2023-03-18T15:49:54.507Z,100661.66
2023-03-18T15:52:27.269Z,100661.38
2023-03-18T15:54:55.666Z,100660.19
2023-03-18T15:57:31.635Z,100666.13
2023-03-18T16:00:00.265Z,100660.25
2023-03-18T16:02:29.989Z,100648.50
2023-03-18T16:05:09.414Z,100649.94
2023-03-18T16:07:39.886Z,100652.16
2023-03-18T16:10:10.106Z,100640.75
2023-03-18T16:12:39.543Z,100646.84
2023-03-18T16:15:18.898Z,100651.22
2023-03-18T16:17:48.734Z,100647.75
2023-03-18T16:20:20.650Z,100645.50
2023-03-18T16:22:50.996Z,100653.53
2023-03-18T16:25:19.487Z,100650.50
2023-03-18T16:27:50.155Z,100650.19
2023-03-18T16:30:22.708Z,100649.63
2023-03-18T16:32:52.160Z,100649.06
2023-03-18T16:35:24.639Z,100647.16
2023-03-18T16:38:00.324Z,100646.31
2023-03-18T16:40:30.951Z,100649.94
2023-03-18T16:42:59.323Z,100646.84
2023-03-18T16:45:30.854Z,100649.63
2023-03-18T16:48:02.874Z,100643.50
2023-03-18T16:50:37.190Z,100644.59
2023-03-18T16:53:17.563Z,100644.88
2023-03-18T16:55:47.393Z,100651.88
2023-03-18T16:58:19.713Z,100654.13
2023-03-18T17:00:49.784Z,100656.88
2023-03-18T17:03:19.721Z,100659.69
2023-03-18T17:05:52.102Z,100655.78
2023-03-18T17:08:22.793Z,100660.25
2023-03-18T17:10:53.873Z,100663.34
2023-03-18T17:13:26.041Z,100657.16
2023-03-18T17:15:55.160Z,100666.38
2023-03-18T17:18:26.065Z,100666.38
2023-03-18T17:20:54.420Z,100665.81
2023-03-18T17:23:26.880Z,100671.66
2023-03-18T17:25:59.218Z,100665.53
2023-03-18T17:28:35.555Z,100674.47
2023-03-18T17:31:04.561Z,100674.19
2023-03-18T17:33:35.599Z,100677.53
2023-03-18T17:36:04.869Z,100679.47
2023-03-18T17:38:35.746Z,100678.09
2023-03-18T17:41:07.419Z,100678.66
2023-03-18T17:43:37.472Z,100680.06
2023-03-18T17:46:06.833Z,100680.63
2023-03-18T17:48:36.673Z,100675.06
2023-03-18T17:51:08.804Z,100675.03
2023-03-18T17:53:42.498Z,100680.06
2023-03-18T17:56:15.894Z,100681.72
2023-03-18T17:58:46.890Z,100682.84
2023-03-18T18:01:19.564Z,100683.13
2023-03-18T18:03:48.575Z,100685.38
2023-03-18T18:06:21.129Z,100681.72
2023-03-18T18:08:51.304Z,100692.88
2023-03-18T18:11:23.866Z,100689.25
2023-03-18T18:13:56.294Z,100691.50
2023-03-18T18:16:25.062Z,100685.34
2023-03-18T18:18:53.522Z,100691.50
2023-03-18T18:21:25.078Z,100685.34
2023-03-18T18:23:54.930Z,100689.81
2023-03-18T18:26:23.243Z,100692.34
2023-03-18T18:28:54.295Z,100696.22
2023-03-18T18:31:24.049Z,100699.28
2023-03-18T18:33:54.850Z,100697.59
2023-03-18T18:36:27.992Z,100699.25
2023-03-18T18:38:57.793Z,100702.63
2023-03-18T18:41:27.275Z,100703.75
2023-03-18T18:43:56.675Z,100707.59
2023-03-18T18:46:26.421Z,100714.88
2023-03-18T18:48:54.932Z,100710.13
2023-03-18T18:51:25.342Z,100706.19
2023-03-18T18:53:55.347Z,100706.50
2023-03-18T18:56:32.242Z,100709.00
2023-03-18T18:59:01.248Z,100717.63
2023-03-18T19:01:29.687Z,100718.75
2023-03-18T19:03:58.054Z,100713.19
2023-03-18T19:06:30.416Z,100715.41
2023-03-18T19:09:01.783Z,100712.03
2023-03-18T19:11:31.479Z,100715.38
2023-03-18T19:14:19.708Z,100712.00
2023-03-18T19:16:49.228Z,100720.91
2023-03-18T19:19:20.637Z,100721.75
2023-03-18T19:21:50.625Z,100714.22
2023-03-18T19:24:28.076Z,100719.25
2023-03-18T19:27:01.497Z,100719.78
2023-03-18T19:29:31.241Z,100730.94
2023-03-18T19:32:01.381Z,100730.09
2023-03-18T19:34:32.334Z,100736.50
2023-03-18T19:37:02.783Z,100736.22
2023-03-18T19:39:31.811Z,100728.66
2023-03-18T19:42:01.521Z,100729.22
2023-03-18T19:44:29.846Z,100726.44
2023-03-18T19:47:01.127Z,100732.00
2023-03-18T19:49:33.632Z,100737.59
2023-03-18T19:52:02.436Z,100734.75
2023-03-18T19:54:32.825Z,100733.69
2023-03-18T19:57:06.873Z,100737.03
2023-03-18T19:59:39.709Z,100741.47
2023-03-18T20:02:24.333Z,100732.56
2023-03-18T20:04:54.376Z,100748.69
2023-03-18T20:07:25.628Z,100740.63
2023-03-18T20:09:54.654Z,100748.44
2023-03-18T20:12:32.718Z,100750.34
2023-03-18T20:15:01.059Z,100752.00
2023-03-18T20:17:38.240Z,100754.19
2023-03-18T20:20:08.785Z,100749.75
2023-03-18T20:22:40.551Z,100757.84
2023-03-18T20:25:17.979Z,100756.44
2023-03-18T20:27:47.724Z,100764.81
2023-03-18T20:30:26.227Z,100760.09
2023-03-18T20:32:55.113Z,100769.78
2023-03-18T20:35:25.907Z,100771.50
2023-03-18T20:37:55.562Z,100773.09
2023-03-18T20:40:26.422Z,100771.16
2023-03-18T20:42:56.620Z,100772.56
2023-03-18T20:45:26.902Z,100775.59
2023-03-18T20:47:56.702Z,100767.53
2023-03-18T20:50:29.810Z,100770.31
2023-03-18T20:52:58.752Z,100770.25
2023-03-18T20:55:30.803Z,100761.84
2023-03-18T20:58:02.159Z,100771.38
2023-03-18T21:00:33.654Z,100781.94
2023-03-18T21:03:03.801Z,100782.22
2023-03-18T21:05:32.352Z,100784.13
2023-03-18T21:08:00.976Z,100792.47
2023-03-18T21:10:29.304Z,100786.38
2023-03-18T21:12:57.681Z,100787.75
2023-03-18T21:15:29.211Z,100786.09
2023-03-18T21:17:57.529Z,100786.66
2023-03-18T21:20:30.056Z,100779.63
2023-03-18T21:22:58.387Z,100791.88
2023-03-18T21:25:28.639Z,100791.28
2023-03-18T21:27:57.858Z,100785.97
2023-03-18T21:30:27.681Z,100790.22
2023-03-18T21:32:56.307Z,100793.47
2023-03-18T21:35:27.324Z,100796.25
2023-03-18T21:37:55.661Z,100795.13
2023-03-18T21:40:26.259Z,100789.88
2023-03-18T21:42:54.663Z,100791.97
2023-03-18T21:45:24.250Z,100790.59
2023-03-18T21:47:53.997Z,100796.16
2023-03-18T21:50:25.252Z,100792.84
2023-03-18T21:52:54.671Z,100796.16
2023-03-18T21:55:23.495Z,100792.25
2023-03-18T21:57:51.812Z,100791.22
2023-03-18T22:00:21.859Z,100795.63
2023-03-18T22:02:50.748Z,100791.47
2023-03-18T22:05:24.500Z,100792.88
2023-03-18T22:07:53.155Z,100788.13
2023-03-18T22:10:24.416Z,100795.97
2023-03-18T22:12:52.858Z,100783.75
2023-03-18T22:15:45.998Z,100785.13
2023-03-18T22:18:15.995Z,100787.66
2023-03-18T22:20:48.339Z,100779.63
2023-03-18T22:23:26.529Z,100779.25
2023-03-18T22:25:56.735Z,100775.16
2023-03-18T22:28:28.109Z,100771.81
2023-03-18T22:30:57.208Z,100770.00
2023-03-18T22:33:29.004Z,100771.72
2023-03-18T22:35:59.286Z,100771.50
2023-03-18T22:38:28.249Z,100769.75
2023-03-18T22:40:58.372Z,100771.94
2023-03-18T22:43:32.462Z,100764.66
2023-03-18T22:46:02.249Z,100766.25
2023-03-18T22:48:30.741Z,100766.13
2023-03-18T22:51:01.537Z,100766.53
2023-03-18T22:53:33.012Z,100775.97
2023-03-18T22:56:08.376Z,100766.25
2023-03-18T22:58:36.738Z,100767.41
2023-03-18T23:01:06.666Z,100772.91
2023-03-18T23:03:40.406Z,100771.81
2023-03-18T23:06:14.638Z,100791.03
2023-03-18T23:08:43.012Z,100801.72
2023-03-18T23:11:11.455Z,100807.16
2023-03-18T23:13:41.672Z,100803.13
2023-03-18T23:16:14.448Z,100806.81
2023-03-18T23:18:42.803Z,100810.28
2023-03-18T23:21:17.970Z,100802.97
2023-03-18T23:23:46.542Z,100813.47
2023-03-18T23:26:15.201Z,100802.63
2023-03-18T23:28:45.265Z,100802.72
2023-03-18T23:31:14.506Z,100790.28
2023-03-18T23:33:43.357Z,100777.19
2023-03-18T23:36:13.753Z,100770.38
2023-03-18T23:38:42.137Z,100772.84
2023-03-18T23:41:10.469Z,100780.00
2023-03-18T23:43:38.819Z,100783.06
2023-03-18T23:46:08.309Z,100766.34
2023-03-18T23:48:36.927Z,100758.31
2023-03-18T23:51:05.707Z,100760.91
2023-03-18T23:53:35.438Z,100759.59
2023-03-18T23:56:03.839Z,100761.59
2023-03-18T23:58:32.130Z,100769.88
